createdAt,value
2018-09-27T00:01:19.311Z,3.10
2018-09-27T00:03:48.201Z,3.10
2018-09-27T00:06:17.017Z,3.00
2018-09-27T00:08:45.703Z,2.90
2018-09-27T00:11:15.605Z,2.90
2018-09-27T00:13:44.481Z,2.90
2018-09-27T00:16:13.380Z,2.90
2018-09-27T00:18:42.272Z,2.90
2018-09-27T00:21:11.172Z,2.90
2018-09-27T00:23:40.789Z,2.90
2018-09-27T00:26:09.779Z,2.80
2018-09-27T00:28:38.433Z,2.80
2018-09-27T00:31:07.429Z,2.80
2018-09-27T00:33:36.216Z,2.70
2018-09-27T00:36:05.108Z,2.70
2018-09-27T00:38:34.741Z,2.70
2018-09-27T00:41:04.086Z,2.70
2018-09-27T00:43:32.688Z,2.80
2018-09-27T00:46:01.660Z,2.70
2018-09-27T00:48:30.391Z,2.80
2018-09-27T00:50:59.006Z,2.70
2018-09-27T00:53:27.543Z,2.70
2018-09-27T00:55:56.330Z,2.70
2018-09-27T00:58:24.912Z,2.60
2018-09-27T01:00:53.517Z,2.60
2018-09-27T01:03:22.158Z,2.50
2018-09-27T01:05:50.829Z,2.60
2018-09-27T01:08:19.699Z,2.60
2018-09-27T01:10:48.325Z,2.60
2018-09-27T01:13:16.948Z,2.50
2018-09-27T01:15:45.497Z,2.50
2018-09-27T01:18:14.077Z,2.50
2018-09-27T01:20:42.697Z,2.40
2018-09-27T01:23:11.365Z,2.40
2018-09-27T01:25:39.962Z,2.40
2018-09-27T01:28:09.121Z,2.40
2018-09-27T01:30:37.821Z,2.40
2018-09-27T01:33:06.433Z,2.40
2018-09-27T01:35:35.131Z,2.40
2018-09-27T01:38:03.971Z,2.40
2018-09-27T01:40:32.666Z,2.30
2018-09-27T01:43:01.844Z,2.30
2018-09-27T01:45:30.568Z,2.40
2018-09-27T01:47:59.053Z,2.30
2018-09-27T01:50:27.622Z,2.30
2018-09-27T01:52:56.264Z,2.30
2018-09-27T01:55:25.035Z,2.20
2018-09-27T01:57:53.649Z,2.30
2018-09-27T02:00:22.606Z,2.10
2018-09-27T02:02:51.428Z,2.10
2018-09-27T02:05:20.017Z,2.10
2018-09-27T02:07:48.613Z,2.10
2018-09-27T02:10:17.432Z,2.10
2018-09-27T02:12:46.098Z,2.10
2018-09-27T02:15:15.017Z,2.00
2018-09-27T02:17:43.794Z,2.00
2018-09-27T02:20:12.440Z,2.00
2018-09-27T02:22:41.296Z,2.00
2018-09-27T02:25:10.206Z,2.00
2018-09-27T02:27:38.973Z,1.90
2018-09-27T02:30:07.570Z,1.90
2018-09-27T02:32:36.437Z,2.00
2018-09-27T02:35:05.902Z,1.90
2018-09-27T02:37:35.084Z,1.80
2018-09-27T02:40:03.915Z,1.80
2018-09-27T02:42:32.613Z,1.80
2018-09-27T02:45:01.312Z,1.80
2018-09-27T02:47:29.963Z,1.80
2018-09-27T02:49:59.091Z,1.80
2018-09-27T02:52:27.774Z,1.80
2018-09-27T02:54:56.764Z,1.80
2018-09-27T02:57:25.603Z,1.80
2018-09-27T02:59:54.586Z,1.80
2018-09-27T03:02:23.361Z,1.70
2018-09-27T03:04:52.132Z,1.70
2018-09-27T03:07:20.767Z,1.70
2018-09-27T03:09:50.075Z,1.60
2018-09-27T03:12:18.796Z,1.60
2018-09-27T03:14:47.938Z,1.60
2018-09-27T03:17:16.616Z,1.60
2018-09-27T03:19:45.151Z,1.60
2018-09-27T03:22:13.754Z,1.50
2018-09-27T03:24:42.334Z,1.50
2018-09-27T03:27:11.202Z,1.50
2018-09-27T03:29:39.894Z,1.50
2018-09-27T03:32:08.812Z,1.40
2018-09-27T03:34:37.329Z,1.50
2018-09-27T03:37:05.863Z,1.50
2018-09-27T03:39:34.522Z,1.50
2018-09-27T03:42:02.988Z,1.50
2018-09-27T03:44:31.496Z,1.40
2018-09-27T03:47:00.109Z,1.40
2018-09-27T03:49:28.596Z,1.40
2018-09-27T03:51:57.223Z,1.40
2018-09-27T03:54:25.914Z,1.40
2018-09-27T03:56:55.386Z,1.40
2018-09-27T03:59:24.742Z,1.40
2018-09-27T04:01:53.279Z,1.40
2018-09-27T04:04:21.900Z,1.40
2018-09-27T04:06:50.658Z,1.30
2018-09-27T04:09:19.497Z,1.30
2018-09-27T04:11:48.208Z,1.30
2018-09-27T04:14:17.169Z,1.30
2018-09-27T04:16:45.680Z,1.20
2018-09-27T04:19:14.487Z,1.30
2018-09-27T04:21:43.203Z,1.20
2018-09-27T04:24:11.879Z,1.10
2018-09-27T04:26:40.557Z,1.10
2018-09-27T04:29:09.437Z,1.10
2018-09-27T04:31:38.025Z,1.10
2018-09-27T04:34:06.902Z,1.00
2018-09-27T04:36:35.564Z,1.10
2018-09-27T04:39:06.108Z,1.10
2018-09-27T04:41:34.735Z,1.10
2018-09-27T04:44:03.557Z,1.00
2018-09-27T04:46:32.305Z,0.90
2018-09-27T04:49:00.833Z,0.90
2018-09-27T04:51:30.076Z,1.00
2018-09-27T04:53:58.740Z,1.00
2018-09-27T04:56:27.396Z,1.00
2018-09-27T04:58:56.218Z,0.90
2018-09-27T05:01:24.759Z,0.90
2018-09-27T05:03:53.934Z,0.90
2018-09-27T05:06:22.640Z,0.80
2018-09-27T05:08:51.145Z,0.80
2018-09-27T05:11:19.621Z,0.80
2018-09-27T05:13:48.110Z,0.90
2018-09-27T05:16:17.000Z,0.80
2018-09-27T05:18:45.783Z,0.70
2018-09-27T05:21:14.469Z,0.80
2018-09-27T05:23:43.752Z,0.80
2018-09-27T05:26:12.703Z,0.80
2018-09-27T05:28:41.280Z,0.80
2018-09-27T05:31:09.944Z,0.80
2018-09-27T05:33:38.613Z,0.80
2018-09-27T05:36:07.156Z,0.80
2018-09-27T05:38:35.688Z,0.80
2018-09-27T05:41:04.376Z,0.80
2018-09-27T05:43:32.992Z,0.80
2018-09-27T05:46:01.704Z,0.80
2018-09-27T05:48:30.228Z,0.90
2018-09-27T05:50:58.808Z,0.90
2018-09-27T05:53:27.453Z,1.00
2018-09-27T05:55:56.802Z,1.00
2018-09-27T05:58:25.549Z,1.00
2018-09-27T06:00:54.759Z,1.10
2018-09-27T06:03:23.292Z,1.20
2018-09-27T06:05:52.809Z,1.30
2018-09-27T06:08:22.085Z,1.40
2018-09-27T06:10:50.899Z,1.50
2018-09-27T06:13:19.399Z,1.60
2018-09-27T06:15:47.876Z,1.60
2018-09-27T06:18:16.784Z,1.60
2018-09-27T06:20:45.482Z,1.60
2018-09-27T06:23:14.224Z,1.70
2018-09-27T06:25:43.315Z,1.70
2018-09-27T06:28:12.162Z,1.80
2018-09-27T06:30:40.769Z,1.90
2018-09-27T06:33:10.064Z,1.90
2018-09-27T06:35:38.656Z,2.00
2018-09-27T06:38:07.511Z,2.10
2018-09-27T06:40:36.255Z,2.30
2018-09-27T06:43:05.038Z,2.40
2018-09-27T06:45:34.254Z,2.60
2018-09-27T06:48:03.208Z,2.70
2018-09-27T06:50:32.090Z,2.80
2018-09-27T06:53:00.676Z,3.00
2018-09-27T06:55:30.306Z,3.20
2018-09-27T06:57:59.341Z,3.40
2018-09-27T07:00:28.900Z,3.50
2018-09-27T07:02:57.866Z,3.70
2018-09-27T07:05:27.032Z,3.80
2018-09-27T07:07:55.683Z,4.00
2018-09-27T07:10:24.388Z,4.20
2018-09-27T07:12:53.688Z,4.30
2018-09-27T07:15:22.544Z,4.50
2018-09-27T07:17:51.214Z,4.60
2018-09-27T07:20:20.582Z,4.80
2018-09-27T07:22:49.362Z,4.90
2018-09-27T07:25:17.971Z,5.10
2018-09-27T07:27:46.612Z,5.20
2018-09-27T07:30:15.376Z,5.40
2018-09-27T07:32:44.206Z,5.60
2018-09-27T07:35:12.840Z,5.70
2018-09-27T07:37:42.252Z,5.90
2018-09-27T07:40:11.362Z,6.10
2018-09-27T07:42:40.006Z,6.20
2018-09-27T07:45:08.740Z,6.40
2018-09-27T07:47:38.096Z,6.50
2018-09-27T07:50:07.166Z,6.60
2018-09-27T07:52:35.852Z,6.80
2018-09-27T07:55:04.533Z,6.90
2018-09-27T07:57:33.190Z,7.00
2018-09-27T08:00:01.835Z,7.10
2018-09-27T08:02:30.572Z,7.20
2018-09-27T08:04:59.504Z,7.30
2018-09-27T08:07:28.344Z,7.40
2018-09-27T08:09:57.083Z,7.50
2018-09-27T08:12:25.683Z,7.60
2018-09-27T08:14:54.444Z,7.80
2018-09-27T08:17:23.301Z,8.00
2018-09-27T08:19:52.015Z,8.10
2018-09-27T08:22:21.317Z,8.30
2018-09-27T08:24:49.856Z,8.50
2018-09-27T08:27:18.639Z,8.60
2018-09-27T08:29:47.235Z,8.70
2018-09-27T08:32:16.279Z,8.90
2018-09-27T08:34:44.759Z,9.00
2018-09-27T08:37:13.304Z,9.10
2018-09-27T08:39:42.106Z,9.30
2018-09-27T08:42:10.726Z,9.40
2018-09-27T08:44:39.560Z,9.60
2018-09-27T08:47:08.100Z,9.70
2018-09-27T08:49:37.036Z,9.90
2018-09-27T08:52:05.832Z,10.10
2018-09-27T08:54:34.398Z,10.30
2018-09-27T08:57:03.150Z,10.50
2018-09-27T08:59:32.110Z,10.80
2018-09-27T09:02:00.955Z,10.90
2018-09-27T09:04:29.864Z,11.00
2018-09-27T09:06:58.724Z,11.20
2018-09-27T09:09:27.629Z,11.40
2018-09-27T09:11:56.334Z,11.60
2018-09-27T09:14:25.077Z,11.80
2018-09-27T09:16:53.537Z,12.00
2018-09-27T09:19:22.167Z,12.20
2018-09-27T09:21:50.831Z,12.30
2018-09-27T09:24:19.610Z,12.30
2018-09-27T09:26:48.875Z,12.50
2018-09-27T09:29:17.463Z,12.70
2018-09-27T09:31:46.937Z,12.90
2018-09-27T09:34:16.150Z,13.10
2018-09-27T09:36:45.176Z,13.30
2018-09-27T09:39:13.685Z,13.50
2018-09-27T09:41:42.321Z,13.60
2018-09-27T09:44:10.839Z,13.70
2018-09-27T09:46:39.412Z,13.80
2018-09-27T09:49:08.695Z,14.00
2018-09-27T09:51:37.337Z,14.10
2018-09-27T09:54:06.236Z,14.30
2018-09-27T09:56:35.075Z,14.50
2018-09-27T09:59:03.668Z,14.60
2018-09-27T10:01:32.225Z,14.80
2018-09-27T10:04:00.845Z,15.00
2018-09-27T10:06:29.433Z,15.20
2018-09-27T10:08:58.317Z,15.40
2018-09-27T10:11:27.005Z,15.60
2018-09-27T10:13:56.688Z,15.60
2018-09-27T10:16:26.049Z,15.70
2018-09-27T10:18:54.803Z,15.90
2018-09-27T10:21:23.344Z,16.10
2018-09-27T10:23:52.218Z,16.20
2018-09-27T10:26:20.810Z,16.40
2018-09-27T10:28:49.570Z,16.70
2018-09-27T10:31:18.374Z,16.90
2018-09-27T10:33:46.848Z,17.10
2018-09-27T10:36:15.502Z,17.30
2018-09-27T10:38:44.156Z,17.40
2018-09-27T10:41:12.948Z,17.60
2018-09-27T10:43:41.668Z,17.70
2018-09-27T10:46:10.845Z,17.80
2018-09-27T10:48:39.664Z,18.00
2018-09-27T10:51:08.280Z,18.10
2018-09-27T10:53:37.144Z,18.30
2018-09-27T10:56:05.886Z,18.40
2018-09-27T10:58:35.175Z,18.30
2018-09-27T11:01:04.150Z,18.30
2018-09-27T11:03:32.822Z,18.40
2018-09-27T11:06:01.521Z,18.50
2018-09-27T11:08:30.357Z,18.60
2018-09-27T11:10:59.028Z,18.80
2018-09-27T11:13:28.455Z,18.90
2018-09-27T11:15:57.061Z,19.00
2018-09-27T11:18:25.853Z,19.20
2018-09-27T11:20:54.615Z,19.30
2018-09-27T11:23:23.140Z,19.40
2018-09-27T11:25:51.726Z,19.40
2018-09-27T11:28:20.668Z,19.40
2018-09-27T11:31:57.855Z,19.50
2018-09-27T11:34:26.691Z,19.50
2018-09-27T11:36:55.390Z,19.70
2018-09-27T11:39:24.277Z,19.70
2018-09-27T11:41:52.861Z,19.80
2018-09-27T11:44:21.431Z,19.80
2018-09-27T11:46:49.936Z,19.90
2018-09-27T11:49:18.608Z,20.00
2018-09-27T11:51:47.209Z,20.00
2018-09-27T11:54:15.793Z,20.20
2018-09-27T11:56:44.489Z,20.20
2018-09-27T11:59:13.929Z,20.40
2018-09-27T12:01:42.529Z,20.40
2018-09-27T12:04:11.512Z,20.60
2018-09-27T12:06:40.329Z,20.80
2018-09-27T12:09:10.899Z,20.80
2018-09-27T12:11:39.900Z,20.80
2018-09-27T12:14:08.968Z,20.80
2018-09-27T12:16:38.424Z,20.90
2018-09-27T12:19:07.039Z,21.10
2018-09-27T12:21:35.893Z,21.10
2018-09-27T12:24:04.738Z,21.20
2018-09-27T12:26:33.360Z,21.20
2018-09-27T12:29:01.964Z,21.30
2018-09-27T12:31:30.437Z,21.50
2018-09-27T12:33:59.293Z,21.60
2018-09-27T12:36:28.272Z,21.60
2018-09-27T12:38:56.850Z,21.60
2018-09-27T12:41:25.472Z,21.70
2018-09-27T12:43:54.133Z,21.70
2018-09-27T12:46:22.891Z,21.70
2018-09-27T12:48:51.627Z,21.80
2018-09-27T12:51:20.404Z,21.90
2018-09-27T12:53:48.792Z,21.90
2018-09-27T12:56:18.137Z,21.90
2018-09-27T12:58:46.944Z,22.00
2018-09-27T13:01:15.928Z,22.00
2018-09-27T13:03:44.736Z,21.90
2018-09-27T13:06:14.307Z,21.90
2018-09-27T13:08:42.989Z,21.70
2018-09-27T13:11:11.432Z,21.50
2018-09-27T13:13:40.464Z,21.40
2018-09-27T13:16:09.162Z,21.30
2018-09-27T13:18:38.352Z,21.20
2018-09-27T13:21:08.623Z,21.20
2018-09-27T13:23:37.365Z,21.30
2018-09-27T13:26:05.894Z,21.30
2018-09-27T13:28:34.600Z,21.40
2018-09-27T13:31:03.405Z,21.40
2018-09-27T13:33:31.996Z,21.40
2018-09-27T13:36:00.627Z,21.40
2018-09-27T13:38:29.247Z,21.40
2018-09-27T13:40:57.938Z,21.30
2018-09-27T13:43:26.500Z,21.40
2018-09-27T13:45:55.994Z,21.40
2018-09-27T13:48:24.557Z,21.40
2018-09-27T13:50:53.330Z,21.40
2018-09-27T13:53:22.149Z,21.50
2018-09-27T13:55:50.901Z,21.50
2018-09-27T13:58:19.832Z,21.40
2018-09-27T14:00:49.391Z,21.50
2018-09-27T14:03:18.501Z,21.50
2018-09-27T14:05:47.255Z,21.70
2018-09-27T14:08:15.932Z,21.90
2018-09-27T14:10:45.217Z,22.00
2018-09-27T14:13:14.244Z,21.90
2018-09-27T14:15:43.106Z,21.90
2018-09-27T14:18:11.874Z,21.90
2018-09-27T14:20:40.512Z,21.90
2018-09-27T14:23:09.405Z,21.90
2018-09-27T14:25:38.231Z,22.00
2018-09-27T14:28:06.691Z,22.00
2018-09-27T14:30:36.087Z,22.10
2018-09-27T14:33:07.150Z,22.20
2018-09-27T14:35:35.699Z,22.20
2018-09-27T14:38:04.452Z,22.20
2018-09-27T14:40:33.065Z,22.20
2018-09-27T14:43:01.981Z,22.30
2018-09-27T14:45:31.337Z,22.30
2018-09-27T14:48:00.268Z,22.40
2018-09-27T14:50:29.157Z,22.40
2018-09-27T14:52:58.313Z,22.40
2018-09-27T14:55:27.157Z,22.40
2018-09-27T14:57:55.712Z,22.50
2018-09-27T15:00:25.205Z,22.50
2018-09-27T15:02:53.868Z,22.50
2018-09-27T15:05:22.610Z,22.60
2018-09-27T15:07:51.311Z,22.70
2018-09-27T15:10:20.192Z,22.70
2018-09-27T15:12:48.832Z,22.80
2018-09-27T15:15:17.672Z,22.90
2018-09-27T15:17:46.455Z,23.00
2018-09-27T15:20:15.433Z,22.90
2018-09-27T15:22:44.013Z,22.80
2018-09-27T15:25:12.903Z,22.60
2018-09-27T15:27:41.594Z,22.60
2018-09-27T15:30:10.396Z,22.50
2018-09-27T15:32:39.215Z,22.40
2018-09-27T15:35:08.807Z,22.30
2018-09-27T15:37:37.464Z,22.50
2018-09-27T15:40:06.360Z,22.80
2018-09-27T15:42:34.965Z,23.10
2018-09-27T15:45:03.852Z,23.60
2018-09-27T15:47:33.005Z,24.60
2018-09-27T15:50:01.684Z,25.80
2018-09-27T15:52:30.589Z,26.90
2018-09-27T15:54:59.392Z,27.50
2018-09-27T15:57:28.053Z,28.70
2018-09-27T15:59:56.936Z,29.40
2018-09-27T16:02:25.494Z,29.40
2018-09-27T16:04:54.399Z,30.70
2018-09-27T16:07:23.435Z,30.60
2018-09-27T16:09:52.158Z,29.90
2018-09-27T16:12:21.012Z,28.70
2018-09-27T16:14:49.671Z,27.20
2018-09-27T16:17:19.064Z,25.80
2018-09-27T16:19:47.686Z,24.40
2018-09-27T16:22:16.560Z,23.20
2018-09-27T16:24:45.379Z,22.20
2018-09-27T16:27:13.935Z,21.40
2018-09-27T16:29:43.118Z,20.70
2018-09-27T16:32:11.923Z,20.00
2018-09-27T16:34:40.625Z,19.30
2018-09-27T16:37:09.332Z,18.90
2018-09-27T16:39:38.086Z,18.50
2018-09-27T16:42:06.711Z,17.90
2018-09-27T16:44:35.285Z,17.50
2018-09-27T16:47:04.367Z,17.10
2018-09-27T16:49:33.239Z,16.70
2018-09-27T16:52:02.023Z,16.40
2018-09-27T16:54:31.580Z,16.10
2018-09-27T16:57:00.254Z,15.90
2018-09-27T16:59:29.662Z,15.70
2018-09-27T17:01:58.278Z,15.40
2018-09-27T17:04:26.881Z,15.20
2018-09-27T17:06:55.650Z,14.80
2018-09-27T17:09:24.349Z,14.50
2018-09-27T17:11:53.016Z,14.40
2018-09-27T17:14:22.026Z,14.20
2018-09-27T17:16:50.718Z,14.00
2018-09-27T17:19:19.721Z,13.90
2018-09-27T17:21:48.405Z,13.70
2018-09-27T17:24:17.063Z,13.50
2018-09-27T17:26:46.088Z,13.40
2018-09-27T17:29:15.057Z,13.20
2018-09-27T17:31:43.759Z,13.20
2018-09-27T17:34:12.945Z,13.10
2018-09-27T17:36:42.331Z,13.00
2018-09-27T17:39:11.159Z,12.80
2018-09-27T17:41:40.676Z,12.60
2018-09-27T17:44:09.504Z,12.40
2018-09-27T17:46:38.517Z,12.20
2018-09-27T17:49:07.319Z,12.00
2018-09-27T17:51:36.123Z,11.90
2018-09-27T17:54:04.762Z,11.90
2018-09-27T17:56:33.406Z,12.00
2018-09-27T17:59:02.279Z,12.00
2018-09-27T18:01:31.510Z,11.90
2018-09-27T18:04:00.542Z,11.70
2018-09-27T18:06:29.490Z,11.50
2018-09-27T18:08:58.447Z,11.40
2018-09-27T18:11:27.142Z,11.20
2018-09-27T18:13:56.225Z,11.10
2018-09-27T18:16:25.012Z,10.90
2018-09-27T18:18:53.896Z,10.90
2018-09-27T18:21:23.665Z,10.90
2018-09-27T18:23:52.520Z,10.80
2018-09-27T18:26:21.454Z,10.70
2018-09-27T18:28:50.075Z,10.60
2018-09-27T18:31:18.755Z,10.40
2018-09-27T18:33:47.384Z,10.30
2018-09-27T18:36:16.011Z,10.20
2018-09-27T18:38:44.641Z,10.10
2018-09-27T18:41:13.373Z,10.00
2018-09-27T18:43:42.259Z,9.90
2018-09-27T18:46:10.917Z,9.90
2018-09-27T18:48:39.612Z,9.80
2018-09-27T18:51:08.505Z,9.70
2018-09-27T18:53:37.305Z,9.60
2018-09-27T18:56:06.815Z,9.60
2018-09-27T18:58:35.401Z,9.60
2018-09-27T19:01:04.847Z,9.50
2018-09-27T19:03:33.414Z,9.50
2018-09-27T19:06:02.860Z,9.40
2018-09-27T19:08:31.640Z,9.40
2018-09-27T19:11:02.041Z,9.30
2018-09-27T19:13:30.770Z,9.20
2018-09-27T19:16:00.397Z,9.20
2018-09-27T19:18:29.593Z,9.20
2018-09-27T19:20:58.355Z,9.10
2018-09-27T19:23:27.053Z,9.10
2018-09-27T19:25:56.330Z,8.90
2018-09-27T19:28:25.137Z,8.90
2018-09-27T19:30:53.992Z,8.80
2018-09-27T19:33:23.082Z,8.80
2018-09-27T19:35:52.183Z,8.80
2018-09-27T19:38:21.798Z,8.80
2018-09-27T19:40:50.643Z,8.70
2018-09-27T19:43:19.503Z,8.60
2018-09-27T19:45:48.317Z,8.60
2018-09-27T19:48:17.339Z,8.50
2018-09-27T19:50:46.658Z,8.50
2018-09-27T19:53:15.660Z,8.50
2018-09-27T19:55:45.237Z,8.40
2018-09-27T19:58:14.130Z,8.30
2018-09-27T20:00:43.070Z,8.30
2018-09-27T20:03:11.871Z,8.20
2018-09-27T20:05:40.805Z,8.20
2018-09-27T20:08:10.273Z,8.20
2018-09-27T20:10:39.456Z,8.10
2018-09-27T20:13:08.565Z,8.00
2018-09-27T20:15:37.138Z,8.00
2018-09-27T20:18:06.018Z,8.10
2018-09-27T20:20:35.044Z,8.00
2018-09-27T20:23:03.830Z,7.90
2018-09-27T20:25:32.928Z,7.90
2018-09-27T20:28:02.005Z,7.80
2018-09-27T20:30:30.729Z,7.80
2018-09-27T20:32:59.476Z,7.70
2018-09-27T20:35:28.230Z,7.70
2018-09-27T20:37:56.911Z,7.70
2018-09-27T20:40:30.461Z,7.70
2018-09-27T20:42:59.175Z,7.60
2018-09-27T20:45:27.697Z,7.60
2018-09-27T20:47:56.413Z,7.50
2018-09-27T20:50:26.541Z,7.40
2018-09-27T20:53:00.155Z,7.40
2018-09-27T20:55:29.324Z,7.40
2018-09-27T20:57:58.187Z,7.40
2018-09-27T21:00:27.157Z,7.30
2018-09-27T21:02:57.202Z,7.30
2018-09-27T21:05:26.046Z,7.20
2018-09-27T21:07:55.445Z,7.20
2018-09-27T21:10:24.341Z,7.20
2018-09-27T21:12:53.126Z,7.20
2018-09-27T21:15:22.213Z,7.20
2018-09-27T21:17:51.428Z,7.20
2018-09-27T21:20:20.702Z,7.30
2018-09-27T21:22:49.452Z,7.20
2018-09-27T21:25:18.095Z,7.10
2018-09-27T21:27:47.318Z,7.10
2018-09-27T21:30:16.083Z,7.00
2018-09-27T21:32:44.705Z,7.00
2018-09-27T21:35:13.208Z,7.00
2018-09-27T21:37:42.143Z,7.00
2018-09-27T21:40:10.947Z,7.00
2018-09-27T21:42:39.819Z,6.90
2018-09-27T21:45:08.600Z,6.90
2018-09-27T21:47:38.034Z,7.00
2018-09-27T21:50:06.656Z,6.90
2018-09-27T21:52:35.165Z,6.80
2018-09-27T21:55:04.406Z,6.70
2018-09-27T21:57:33.031Z,6.70
2018-09-27T22:00:01.822Z,6.60
2018-09-27T22:02:30.539Z,6.60
2018-09-27T22:04:59.180Z,6.50
2018-09-27T22:07:28.183Z,6.50
2018-09-27T22:09:58.181Z,6.50
2018-09-27T22:12:26.915Z,6.50
2018-09-27T22:14:55.756Z,6.50
2018-09-27T22:17:24.448Z,6.50
2018-09-27T22:19:53.391Z,6.50
2018-09-27T22:22:22.008Z,6.50
2018-09-27T22:24:50.599Z,6.50
2018-09-27T22:27:19.757Z,6.50
2018-09-27T22:29:48.292Z,6.50
2018-09-27T22:32:16.803Z,6.50
2018-09-27T22:34:45.515Z,6.40
2018-09-27T22:37:14.581Z,6.40
2018-09-27T22:39:43.245Z,6.40
2018-09-27T22:42:11.846Z,6.40
2018-09-27T22:44:40.685Z,6.40
2018-09-27T22:47:09.493Z,6.30
2018-09-27T22:49:39.099Z,6.30
2018-09-27T22:52:08.089Z,6.20
2018-09-27T22:54:36.948Z,6.20
2018-09-27T22:57:05.523Z,6.20
2018-09-27T22:59:34.069Z,6.10
2018-09-27T23:02:02.580Z,6.10
2018-09-27T23:04:31.079Z,6.10
2018-09-27T23:06:59.885Z,6.10
2018-09-27T23:09:28.525Z,6.10
2018-09-27T23:11:57.126Z,6.10
2018-09-27T23:14:25.799Z,6.10
2018-09-27T23:16:54.485Z,6.10
2018-09-27T23:19:23.137Z,6.10
2018-09-27T23:21:52.482Z,6.10
2018-09-27T23:24:21.025Z,6.10
2018-09-27T23:26:49.653Z,6.10
2018-09-27T23:29:18.234Z,6.00
2018-09-27T23:31:46.816Z,6.00
2018-09-27T23:34:15.592Z,5.90
2018-09-27T23:36:44.280Z,5.90
2018-09-27T23:39:12.961Z,5.90
2018-09-27T23:41:41.824Z,5.90
2018-09-27T23:44:10.743Z,5.90
2018-09-27T23:46:39.272Z,5.90
2018-09-27T23:49:08.539Z,5.80
2018-09-27T23:51:37.784Z,5.80
2018-09-27T23:54:06.715Z,5.80
2018-09-27T23:56:35.404Z,5.80
2018-09-27T23:59:04.412Z,5.70
